createdAt,value
2019-04-28T00:01:51.244Z,13.40
2019-04-28T00:04:17.551Z,13.40
2019-04-28T00:06:43.711Z,13.30
2019-04-28T00:09:11.836Z,13.30
2019-04-28T00:11:38.305Z,13.30
2019-04-28T00:14:04.516Z,13.30
2019-04-28T00:16:31.147Z,13.30
2019-04-28T00:18:57.791Z,13.30
2019-04-28T00:21:35.130Z,13.30
2019-04-28T00:24:03.693Z,13.30
2019-04-28T00:26:37.870Z,13.30
2019-04-28T00:29:04.176Z,13.20
2019-04-28T00:31:31.256Z,13.20
2019-04-28T00:33:57.689Z,13.20
2019-04-28T00:36:24.290Z,13.30
2019-04-28T00:38:51.470Z,13.20
2019-04-28T00:41:17.772Z,13.30
2019-04-28T00:43:43.914Z,13.30
2019-04-28T00:46:11.023Z,13.30
2019-04-28T00:48:38.198Z,13.30
2019-04-28T00:51:04.513Z,13.30
2019-04-28T00:53:31.140Z,13.30
2019-04-28T00:55:57.309Z,13.30
2019-04-28T00:58:23.466Z,13.30
2019-04-28T01:00:51.572Z,13.30
2019-04-28T01:03:17.986Z,13.30
2019-04-28T01:05:44.523Z,13.30
2019-04-28T01:08:11.032Z,13.30
2019-04-28T01:10:37.265Z,13.30
2019-04-28T01:13:04.091Z,13.30
2019-04-28T01:15:32.196Z,13.30
2019-04-28T01:18:00.813Z,13.30
2019-04-28T01:20:27.279Z,13.30
2019-04-28T01:22:53.429Z,13.30
2019-04-28T01:25:20.384Z,13.20
2019-04-28T01:27:50.317Z,13.20
2019-04-28T01:30:20.290Z,13.20
2019-04-28T01:32:49.805Z,13.20
2019-04-28T01:35:16.150Z,13.20
2019-04-28T01:37:42.585Z,13.10
2019-04-28T01:40:09.577Z,13.10
2019-04-28T01:42:35.705Z,13.10
2019-04-28T01:45:05.128Z,13.10
2019-04-28T01:47:31.263Z,13.10
2019-04-28T01:49:57.532Z,13.10
2019-04-28T01:52:23.683Z,13.10
2019-04-28T01:54:50.294Z,13.00
2019-04-28T01:57:16.536Z,13.00
2019-04-28T01:59:42.906Z,13.00
2019-04-28T02:02:10.144Z,13.00
2019-04-28T02:04:36.671Z,13.00
2019-04-28T02:07:03.173Z,13.00
2019-04-28T02:09:29.745Z,13.00
2019-04-28T02:11:56.325Z,13.00
2019-04-28T02:14:22.459Z,13.00
2019-04-28T02:16:50.323Z,13.00
2019-04-28T02:19:16.628Z,12.90
2019-04-28T02:21:50.658Z,12.90
2019-04-28T02:24:33.984Z,12.80
2019-04-28T02:27:01.132Z,12.80
2019-04-28T02:29:30.011Z,12.70
2019-04-28T02:31:57.118Z,12.70
2019-04-28T02:34:23.374Z,12.70
2019-04-28T02:36:53.245Z,12.60
2019-04-28T02:39:17.941Z,12.50
2019-04-28T02:41:44.142Z,12.50
2019-04-28T02:44:10.475Z,12.50
2019-04-28T02:46:36.909Z,12.40
2019-04-28T02:49:04.781Z,12.40
2019-04-28T02:51:32.879Z,12.30
2019-04-28T02:54:00.591Z,12.20
2019-04-28T02:56:27.082Z,12.20
2019-04-28T02:58:53.232Z,12.10
2019-04-28T03:01:26.087Z,12.10
2019-04-28T03:03:47.866Z,12.00
2019-04-28T03:06:14.098Z,12.00
2019-04-28T03:08:40.669Z,11.90
2019-04-28T03:11:06.964Z,11.90
2019-04-28T03:13:33.201Z,11.80
2019-04-28T03:16:01.640Z,11.80
2019-04-28T03:18:27.456Z,11.80
2019-04-28T03:20:53.592Z,11.70
2019-04-28T03:23:20.705Z,11.70
2019-04-28T03:25:51.967Z,11.70
2019-04-28T03:28:30.813Z,11.60
2019-04-28T03:31:03.330Z,11.60
2019-04-28T03:33:32.985Z,11.50
2019-04-28T03:35:57.088Z,11.50
2019-04-28T03:38:23.319Z,11.50
2019-04-28T03:40:51.299Z,11.40
2019-04-28T03:43:17.596Z,11.40
2019-04-28T03:45:51.480Z,11.40
2019-04-28T03:48:18.053Z,11.40
2019-04-28T03:50:44.206Z,11.40
2019-04-28T03:53:11.164Z,11.40
2019-04-28T03:55:37.562Z,11.40
2019-04-28T03:58:03.801Z,11.50
2019-04-28T04:00:31.144Z,11.50
2019-04-28T04:03:00.579Z,11.50
2019-04-28T04:05:25.892Z,11.60
2019-04-28T04:07:52.096Z,11.60
2019-04-28T04:10:24.830Z,11.70
2019-04-28T04:12:53.301Z,11.80
2019-04-28T04:15:23.058Z,11.80
2019-04-28T04:18:07.903Z,11.90
2019-04-28T04:20:34.066Z,12.00
2019-04-28T04:23:01.360Z,12.10
2019-04-28T04:25:31.419Z,12.10
2019-04-28T04:28:00.442Z,12.20
2019-04-28T04:30:25.918Z,12.20
2019-04-28T04:32:52.133Z,12.20
2019-04-28T04:35:18.271Z,12.30
2019-04-28T04:37:44.503Z,12.30
2019-04-28T04:40:13.101Z,12.40
2019-04-28T04:42:40.326Z,12.40
2019-04-28T04:45:07.327Z,12.50
2019-04-28T04:47:35.380Z,12.50
2019-04-28T04:50:03.375Z,12.50
2019-04-28T04:52:30.396Z,12.60
2019-04-28T04:54:56.833Z,12.60
2019-04-28T04:57:23.082Z,12.70
2019-04-28T04:59:50.001Z,12.70
2019-04-28T05:02:29.529Z,12.70
2019-04-28T05:04:54.387Z,12.80
2019-04-28T05:07:20.524Z,12.80
2019-04-28T05:09:47.046Z,12.90
2019-04-28T05:12:13.244Z,12.90
2019-04-28T05:14:39.650Z,13.00
2019-04-28T05:17:05.801Z,13.00
2019-04-28T05:19:32.292Z,13.10
2019-04-28T05:22:00.058Z,13.20
2019-04-28T05:24:34.113Z,13.20
2019-04-28T05:27:00.266Z,13.30
2019-04-28T05:29:27.848Z,13.40
2019-04-28T05:31:54.721Z,13.50
2019-04-28T05:34:24.062Z,13.50
2019-04-28T05:36:50.708Z,13.50
2019-04-28T05:39:16.927Z,13.60
2019-04-28T05:41:43.090Z,13.60
2019-04-28T05:44:10.050Z,13.60
2019-04-28T05:46:36.354Z,13.60
2019-04-28T05:49:04.590Z,13.60
2019-04-28T05:51:32.732Z,13.60
2019-04-28T05:54:00.784Z,13.60
2019-04-28T05:56:34.933Z,13.50
2019-04-28T05:59:02.959Z,13.50
2019-04-28T06:01:37.021Z,13.50
2019-04-28T06:04:03.169Z,13.50
2019-04-28T06:06:31.287Z,13.50
2019-04-28T06:08:59.799Z,13.50
2019-04-28T06:11:30.853Z,13.50
2019-04-28T06:13:59.926Z,13.60
2019-04-28T06:16:26.350Z,13.60
2019-04-28T06:18:52.479Z,13.60
2019-04-28T06:21:18.685Z,13.60
2019-04-28T06:23:44.842Z,13.70
2019-04-28T06:26:11.496Z,13.70
2019-04-28T06:28:37.634Z,13.70
2019-04-28T06:31:03.962Z,13.70
2019-04-28T06:33:30.168Z,13.70
2019-04-28T06:35:56.732Z,13.70
2019-04-28T06:38:23.074Z,13.70
2019-04-28T06:40:49.525Z,13.70
2019-04-28T06:43:15.682Z,13.70
2019-04-28T06:45:41.917Z,13.70
2019-04-28T06:48:08.046Z,13.70
2019-04-28T06:50:34.249Z,13.70
2019-04-28T06:53:02.818Z,13.70
2019-04-28T06:55:28.767Z,13.70
2019-04-28T06:57:54.901Z,13.80
2019-04-28T07:00:21.050Z,13.80
2019-04-28T07:02:47.265Z,13.80
2019-04-28T07:05:13.415Z,13.90
2019-04-28T07:07:39.631Z,13.90
2019-04-28T07:10:05.963Z,13.90
2019-04-28T07:12:32.291Z,13.90
2019-04-28T07:14:58.460Z,14.00
2019-04-28T07:17:24.659Z,14.10
2019-04-28T07:20:09.704Z,14.10
2019-04-28T07:22:36.103Z,14.10
2019-04-28T07:25:04.607Z,14.20
2019-04-28T07:27:30.813Z,14.20
2019-04-28T07:29:56.967Z,14.30
2019-04-28T07:32:23.174Z,14.40
2019-04-28T07:34:49.326Z,14.50
2019-04-28T07:37:15.649Z,14.60
2019-04-28T07:39:41.822Z,14.60
2019-04-28T07:42:08.054Z,14.70
2019-04-28T07:44:34.441Z,14.80
2019-04-28T07:47:00.640Z,14.80
2019-04-28T07:49:27.113Z,14.90
2019-04-28T07:51:55.220Z,14.90
2019-04-28T07:54:21.663Z,15.00
2019-04-28T07:56:47.906Z,15.10
2019-04-28T07:59:14.074Z,15.20
2019-04-28T08:01:40.641Z,15.30
2019-04-28T08:04:06.811Z,15.40
2019-04-28T08:06:33.035Z,15.60
2019-04-28T08:08:59.175Z,15.70
2019-04-28T08:11:25.502Z,15.90
2019-04-28T08:13:51.697Z,16.00
2019-04-28T08:16:17.852Z,16.10
2019-04-28T08:18:44.059Z,16.20
2019-04-28T08:21:10.223Z,16.30
2019-04-28T08:23:46.636Z,16.40
2019-04-28T08:26:04.945Z,16.60
2019-04-28T08:28:31.385Z,16.70
2019-04-28T08:30:57.551Z,16.70
2019-04-28T08:33:33.218Z,16.80
2019-04-28T08:35:59.769Z,16.90
2019-04-28T08:38:26.110Z,17.00
2019-04-28T08:40:55.009Z,17.00
2019-04-28T08:43:21.209Z,17.20
2019-04-28T08:45:47.390Z,17.30
2019-04-28T08:48:13.595Z,17.40
2019-04-28T08:50:42.677Z,17.60
2019-04-28T08:53:08.876Z,17.80
2019-04-28T08:55:35.016Z,17.90
2019-04-28T08:58:01.386Z,18.00
2019-04-28T09:00:27.761Z,18.10
2019-04-28T09:02:53.965Z,18.20
2019-04-28T09:05:21.182Z,18.30
2019-04-28T09:07:47.456Z,18.40
2019-04-28T09:10:13.623Z,18.50
2019-04-28T09:12:39.912Z,18.60
2019-04-28T09:15:07.835Z,18.70
2019-04-28T09:17:34.489Z,18.80
2019-04-28T09:20:00.710Z,19.00
2019-04-28T09:22:26.859Z,19.20
2019-04-28T09:24:53.130Z,19.40
2019-04-28T09:27:19.383Z,19.50
2019-04-28T09:29:52.670Z,19.60
2019-04-28T09:32:18.868Z,19.70
2019-04-28T09:34:45.283Z,19.90
2019-04-28T09:37:11.506Z,20.10
2019-04-28T09:39:48.631Z,20.30
2019-04-28T09:42:31.938Z,20.50
2019-04-28T09:45:01.355Z,20.60
2019-04-28T09:47:27.769Z,20.50
2019-04-28T09:49:54.003Z,20.50
2019-04-28T09:52:20.156Z,20.50
2019-04-28T09:54:46.371Z,20.60
2019-04-28T09:57:12.530Z,20.80
2019-04-28T09:59:38.718Z,21.00
2019-04-28T10:02:05.045Z,21.20
2019-04-28T10:04:40.957Z,21.40
2019-04-28T10:06:59.328Z,21.50
2019-04-28T10:09:25.537Z,21.60
2019-04-28T10:11:51.743Z,21.60
2019-04-28T10:14:18.113Z,21.60
2019-04-28T10:16:44.556Z,21.60
2019-04-28T10:19:10.768Z,21.60
2019-04-28T10:21:37.225Z,21.80
2019-04-28T10:24:03.830Z,22.00
2019-04-28T10:26:30.308Z,22.40
2019-04-28T10:28:56.515Z,22.70
2019-04-28T10:31:22.674Z,23.00
2019-04-28T10:33:50.854Z,23.20
2019-04-28T10:36:17.284Z,23.20
2019-04-28T10:38:45.354Z,23.20
2019-04-28T10:41:16.520Z,23.20
2019-04-28T10:43:42.665Z,23.10
2019-04-28T10:46:08.917Z,23.00
2019-04-28T10:48:35.271Z,22.80
2019-04-28T10:51:01.582Z,22.60
2019-04-28T10:53:27.845Z,22.40
2019-04-28T10:55:54.155Z,22.40
2019-04-28T10:58:20.689Z,22.30
2019-04-28T11:00:53.639Z,22.30
2019-04-28T11:03:19.781Z,22.60
2019-04-28T11:05:46.021Z,23.10
2019-04-28T11:08:14.353Z,23.70
2019-04-28T11:10:40.811Z,24.40
2019-04-28T11:13:07.001Z,25.00
2019-04-28T11:15:36.811Z,25.60
2019-04-28T11:18:05.107Z,25.90
2019-04-28T11:20:31.608Z,27.50
2019-04-28T11:22:57.833Z,26.10
2019-04-28T11:25:24.434Z,26.00
2019-04-28T11:27:50.563Z,25.70
2019-04-28T11:30:17.805Z,25.40
2019-04-28T11:32:51.807Z,25.00
2019-04-28T11:35:22.573Z,24.60
2019-04-28T11:37:48.965Z,24.20
2019-04-28T11:40:15.256Z,23.70
2019-04-28T11:42:41.444Z,23.30
2019-04-28T11:45:08.181Z,22.90
2019-04-28T11:47:34.328Z,22.50
2019-04-28T11:50:01.077Z,22.10
2019-04-28T11:52:27.246Z,21.70
2019-04-28T11:54:53.771Z,21.40
2019-04-28T11:57:19.929Z,21.10
2019-04-28T11:59:46.068Z,20.80
2019-04-28T12:02:12.388Z,20.60
2019-04-28T12:04:38.757Z,20.30
2019-04-28T12:07:05.163Z,20.10
2019-04-28T12:09:42.446Z,20.00
2019-04-28T12:12:22.842Z,19.80
2019-04-28T12:14:57.208Z,19.70
2019-04-28T12:17:31.472Z,19.60
2019-04-28T12:19:59.524Z,19.50
2019-04-28T12:22:25.805Z,19.50
2019-04-28T12:24:51.940Z,19.40
2019-04-28T12:27:18.212Z,19.40
2019-04-28T12:29:44.355Z,19.50
2019-04-28T12:32:10.542Z,19.50
2019-04-28T12:34:36.743Z,19.60
2019-04-28T12:37:04.619Z,19.70
2019-04-28T12:39:30.748Z,19.80
2019-04-28T12:41:56.982Z,19.80
2019-04-28T12:44:23.346Z,19.80
2019-04-28T12:46:49.578Z,19.90
2019-04-28T12:49:20.619Z,19.80
2019-04-28T12:51:46.872Z,19.80
2019-04-28T12:54:14.928Z,19.70
2019-04-28T12:56:41.170Z,19.60
2019-04-28T12:59:14.942Z,19.50
2019-04-28T13:01:43.386Z,19.50
2019-04-28T13:04:14.397Z,19.40
2019-04-28T13:06:40.652Z,19.40
2019-04-28T13:09:07.271Z,19.40
2019-04-28T13:11:33.436Z,19.40
2019-04-28T13:13:59.701Z,19.40
2019-04-28T13:16:25.860Z,19.40
2019-04-28T13:18:52.445Z,19.40
2019-04-28T13:21:18.600Z,19.50
2019-04-28T13:23:45.208Z,19.50
2019-04-28T13:26:11.319Z,19.50
2019-04-28T13:28:37.805Z,19.60
2019-04-28T13:31:03.952Z,19.60
2019-04-28T13:33:30.149Z,19.70
2019-04-28T13:35:56.609Z,19.80
2019-04-28T13:38:23.068Z,19.90
2019-04-28T13:40:49.279Z,20.00
2019-04-28T13:43:15.858Z,20.10
2019-04-28T13:45:42.482Z,20.30
2019-04-28T13:48:09.104Z,20.40
2019-04-28T13:50:36.347Z,20.60
2019-04-28T13:53:04.581Z,20.70
2019-04-28T13:55:45.475Z,20.80
2019-04-28T13:58:11.946Z,20.90
2019-04-28T14:00:52.519Z,21.00
2019-04-28T14:06:13.918Z,21.00
2019-04-28T14:08:40.190Z,21.10
2019-04-28T14:11:06.648Z,21.10
2019-04-28T14:13:32.934Z,21.10
2019-04-28T14:15:59.068Z,21.10
2019-04-28T14:18:25.381Z,21.20
2019-04-28T14:20:52.146Z,21.20
2019-04-28T14:23:18.831Z,21.20
2019-04-28T14:25:45.080Z,21.20
2019-04-28T14:28:11.228Z,21.20
2019-04-28T14:30:37.552Z,21.20
2019-04-28T14:33:03.855Z,21.20
2019-04-28T14:35:31.134Z,21.20
2019-04-28T14:37:57.510Z,21.20
2019-04-28T14:40:23.744Z,21.20
2019-04-28T14:42:49.926Z,21.20
2019-04-28T14:45:16.313Z,21.20
2019-04-28T14:47:42.484Z,21.20
2019-04-28T14:50:09.250Z,21.20
2019-04-28T14:52:35.403Z,21.20
2019-04-28T14:55:04.858Z,21.10
2019-04-28T14:57:31.000Z,21.10
2019-04-28T14:59:58.292Z,21.00
2019-04-28T15:02:35.364Z,21.00
2019-04-28T15:05:12.316Z,21.00
2019-04-28T15:07:46.466Z,21.00
2019-04-28T15:10:21.587Z,21.00
2019-04-28T15:12:48.051Z,20.90
2019-04-28T15:15:14.701Z,20.90
2019-04-28T15:17:41.135Z,20.90
2019-04-28T15:20:08.234Z,20.80
2019-04-28T15:22:34.447Z,20.80
2019-04-28T15:25:00.598Z,20.80
2019-04-28T15:27:26.783Z,20.80
2019-04-28T15:29:53.868Z,20.70
2019-04-28T15:32:20.108Z,20.70
2019-04-28T15:34:46.325Z,20.60
2019-04-28T15:37:15.430Z,20.60
2019-04-28T15:39:40.956Z,20.50
2019-04-28T15:42:07.153Z,20.50
2019-04-28T15:44:33.297Z,20.50
2019-04-28T15:46:59.462Z,20.40
2019-04-28T15:49:25.601Z,20.40
2019-04-28T15:51:51.772Z,20.40
2019-04-28T15:54:17.917Z,20.30
2019-04-28T15:56:45.476Z,20.30
2019-04-28T15:59:11.628Z,20.20
2019-04-28T16:01:38.190Z,20.20
2019-04-28T16:04:04.383Z,20.10
2019-04-28T16:06:30.948Z,20.10
2019-04-28T16:08:57.105Z,20.00
2019-04-28T16:11:23.258Z,19.90
2019-04-28T16:13:52.093Z,19.90
2019-04-28T16:16:18.251Z,19.80
2019-04-28T16:18:44.415Z,19.80
2019-04-28T16:21:10.575Z,19.80
2019-04-28T16:23:36.795Z,19.70
2019-04-28T16:26:03.171Z,19.70
2019-04-28T16:28:29.334Z,19.60
2019-04-28T16:30:55.840Z,19.60
2019-04-28T16:33:22.415Z,19.50
2019-04-28T16:35:48.558Z,19.40
2019-04-28T16:38:14.730Z,19.40
2019-04-28T16:40:40.909Z,19.30
2019-04-28T16:43:07.089Z,19.20
2019-04-28T16:45:33.232Z,19.20
2019-04-28T16:47:59.391Z,19.20
2019-04-28T16:50:25.519Z,19.20
2019-04-28T16:52:51.679Z,19.10
2019-04-28T16:55:25.668Z,19.10
2019-04-28T16:58:12.137Z,19.00
2019-04-28T17:00:43.243Z,19.00
2019-04-28T17:03:09.418Z,18.90
2019-04-28T17:05:35.568Z,18.80
2019-04-28T17:08:01.735Z,18.80
2019-04-28T17:10:27.925Z,18.70
2019-04-28T17:12:54.105Z,18.60
2019-04-28T17:15:20.336Z,18.60
2019-04-28T17:17:46.524Z,18.50
2019-04-28T17:20:12.858Z,18.50
2019-04-28T17:22:39.029Z,18.40
2019-04-28T17:25:05.778Z,18.30
2019-04-28T17:27:31.921Z,18.30
2019-04-28T17:29:58.423Z,18.20
2019-04-28T17:32:24.558Z,18.20
2019-04-28T17:34:50.718Z,18.10
2019-04-28T17:37:17.144Z,18.00
2019-04-28T17:39:43.534Z,18.00
2019-04-28T17:42:11.587Z,17.90
2019-04-28T17:44:37.857Z,17.90
2019-04-28T17:47:04.132Z,17.80
2019-04-28T17:49:35.142Z,17.70
2019-04-28T17:52:03.025Z,17.60
2019-04-28T17:54:29.545Z,17.50
2019-04-28T17:56:55.714Z,17.40
2019-04-28T17:59:21.892Z,17.40
2019-04-28T18:01:59.176Z,17.30
2019-04-28T18:04:27.263Z,17.20
2019-04-28T18:06:55.351Z,17.10
2019-04-28T18:09:22.111Z,17.10
2019-04-28T18:11:48.264Z,17.00
2019-04-28T18:14:14.575Z,16.90
2019-04-28T18:16:52.094Z,16.80
2019-04-28T18:19:20.176Z,16.80
2019-04-28T18:21:46.323Z,16.70
2019-04-28T18:24:12.518Z,16.60
2019-04-28T18:26:38.660Z,16.50
2019-04-28T18:29:05.546Z,16.40
2019-04-28T18:31:48.788Z,16.40
2019-04-28T18:34:29.099Z,16.30
2019-04-28T18:37:15.466Z,16.20
2019-04-28T18:40:00.352Z,16.20
2019-04-28T18:42:28.658Z,16.10
2019-04-28T18:44:55.220Z,16.00
2019-04-28T18:47:21.596Z,15.90
2019-04-28T18:49:47.784Z,15.90
2019-04-28T18:52:14.039Z,15.80
2019-04-28T18:54:40.351Z,15.80
2019-04-28T18:57:09.200Z,15.70
2019-04-28T18:59:35.376Z,15.70
2019-04-28T19:02:15.187Z,15.60
2019-04-28T19:04:41.507Z,15.60
2019-04-28T19:07:10.319Z,15.50
2019-04-28T19:09:38.443Z,15.50
2019-04-28T19:12:06.594Z,15.40
2019-04-28T19:14:43.769Z,15.30
2019-04-28T19:17:12.139Z,15.30
2019-04-28T19:19:39.977Z,15.20
2019-04-28T19:22:06.588Z,15.20
2019-04-28T19:24:33.265Z,15.20
2019-04-28T19:26:59.590Z,15.10
2019-04-28T19:29:26.043Z,15.00
2019-04-28T19:31:52.599Z,15.00
2019-04-28T19:34:18.778Z,15.00
2019-04-28T19:36:44.971Z,14.90
2019-04-28T19:39:11.115Z,14.90
2019-04-28T19:41:37.284Z,14.80
2019-04-28T19:44:03.420Z,14.90
2019-04-28T19:46:36.315Z,14.80
2019-04-28T19:49:02.551Z,14.80
2019-04-28T19:51:32.075Z,14.80
2019-04-28T19:53:57.654Z,14.70
2019-04-28T19:56:28.546Z,14.70
2019-04-28T19:58:56.599Z,14.60
2019-04-28T20:01:24.689Z,14.60
2019-04-28T20:03:50.830Z,14.60
2019-04-28T20:06:17.003Z,14.60
2019-04-28T20:08:43.388Z,14.50
2019-04-28T20:11:09.580Z,14.50
2019-04-28T20:13:35.845Z,14.50
2019-04-28T20:16:02.034Z,14.50
2019-04-28T20:18:29.674Z,14.50
2019-04-28T20:20:56.052Z,14.50
2019-04-28T20:23:22.255Z,14.50
2019-04-28T20:25:48.434Z,14.40
2019-04-28T20:28:14.898Z,14.40
2019-04-28T20:30:41.028Z,14.40
2019-04-28T20:33:07.867Z,14.40
2019-04-28T20:35:36.156Z,14.40
2019-04-28T20:38:04.493Z,14.40
2019-04-28T20:40:35.760Z,14.30
2019-04-28T20:43:15.622Z,14.30
2019-04-28T20:45:42.435Z,14.30
2019-04-28T20:48:09.104Z,14.30
2019-04-28T20:50:35.238Z,14.20
2019-04-28T20:53:01.424Z,14.20
2019-04-28T20:55:27.901Z,14.20
2019-04-28T20:57:54.110Z,14.20
2019-04-28T21:00:20.670Z,14.20
2019-04-28T21:02:47.309Z,14.10
2019-04-28T21:05:13.454Z,14.10
2019-04-28T21:07:43.324Z,14.10
2019-04-28T21:10:09.674Z,14.10
2019-04-28T21:12:35.814Z,14.10
2019-04-28T21:15:02.824Z,14.10
2019-04-28T21:17:29.013Z,14.10
2019-04-28T21:19:55.238Z,14.10
2019-04-28T21:22:21.410Z,14.10
2019-04-28T21:24:47.569Z,14.10
2019-04-28T21:27:13.716Z,14.10
2019-04-28T21:29:40.526Z,14.20
2019-04-28T21:32:06.933Z,14.20
2019-04-28T21:34:33.162Z,14.30
2019-04-28T21:36:59.335Z,14.30
2019-04-28T21:39:25.534Z,14.30
2019-04-28T21:41:51.678Z,14.40
2019-04-28T21:44:19.743Z,14.40
2019-04-28T21:46:48.140Z,14.40
2019-04-28T21:49:24.950Z,14.50
2019-04-28T21:51:51.097Z,14.50
2019-04-28T21:54:17.253Z,14.50
2019-04-28T21:56:43.394Z,14.60
2019-04-28T21:59:09.580Z,14.60
2019-04-28T22:01:36.135Z,14.60
2019-04-28T22:04:04.848Z,14.60
2019-04-28T22:06:33.588Z,14.60
2019-04-28T22:08:59.723Z,14.60
2019-04-28T22:11:25.900Z,14.50
2019-04-28T22:13:52.099Z,14.50
2019-04-28T22:16:18.254Z,14.50
2019-04-28T22:18:44.398Z,14.40
2019-04-28T22:21:10.561Z,14.40
2019-04-28T22:23:47.327Z,14.40
2019-04-28T22:26:15.388Z,14.40
2019-04-28T22:28:41.597Z,14.30
2019-04-28T22:31:07.763Z,14.30
2019-04-28T22:33:53.796Z,14.30
2019-04-28T22:36:20.016Z,14.20
2019-04-28T22:38:46.164Z,14.20
2019-04-28T22:41:12.581Z,14.20
2019-04-28T22:43:38.957Z,14.10
2019-04-28T22:46:05.145Z,14.10
2019-04-28T22:48:31.306Z,14.00
2019-04-28T22:50:57.664Z,14.00
2019-04-28T22:53:25.723Z,14.00
2019-04-28T22:55:59.483Z,13.90
2019-04-28T22:58:27.886Z,13.90
2019-04-28T23:00:58.899Z,13.80
2019-04-28T23:03:29.720Z,13.80
2019-04-28T23:05:56.268Z,13.80
2019-04-28T23:08:22.419Z,13.70
2019-04-28T23:10:48.552Z,13.70
2019-04-28T23:13:14.863Z,13.70
2019-04-28T23:15:41.181Z,13.70
2019-04-28T23:18:07.455Z,13.70
2019-04-28T23:20:35.868Z,13.60
2019-04-28T23:23:03.947Z,13.60
2019-04-28T23:25:30.089Z,13.60
2019-04-28T23:27:56.286Z,13.60
2019-04-28T23:30:42.678Z,13.60
2019-04-28T23:33:09.153Z,13.50
2019-04-28T23:35:35.299Z,13.50
2019-04-28T23:38:01.480Z,13.50
2019-04-28T23:40:27.967Z,13.40
2019-04-28T23:42:56.030Z,13.40
2019-04-28T23:45:22.192Z,13.40
2019-04-28T23:50:18.298Z,13.40
2019-04-28T23:52:49.117Z,13.40
2019-04-28T23:55:16.268Z,13.30
2019-04-28T23:57:42.479Z,13.30
